Time;durP1;ratioP1;P1;durP2;ratioP2;P2;SDS_P1;SDS_P2;PMS_P1;PMS_P2;Temp;Humidity;BMP_temperature;BMP_pressure;BME280_temperature;BME280_humidity;BME280_pressure;Samples;Min_cycle;Max_cycle;Signal;HPM_P1;HPM_P2
2024/04/09 00:00:01;;;;;;;5.37;2.70;;;;;;;;;;770726;180;917248;-66
2024/04/09 00:02:27;;;;;;;8.23;3.33;;;;;;;;;;773725;180;912217;-64
2024/04/09 00:04:52;;;;;;;8.00;3.50;;;;;;;;;;771901;180;918708;-66
2024/04/09 00:07:18;;;;;;;3.87;2.27;;;;;;;;;;778367;180;675871;-64
2024/04/09 00:09:44;;;;;;;8.43;3.57;;;;;;;;;;772593;180;827235;-64
2024/04/09 00:12:10;;;;;;;4.30;2.50;;;;;;;;;;767339;180;926565;-66
2024/04/09 00:14:37;;;;;;;8.37;3.57;;;;;;;;;;774335;180;813563;-64
2024/04/09 00:17:05;;;;;;;5.97;3.13;;;;;;;;;;771255;180;817739;-64
2024/04/09 00:19:29;;;;;;;8.20;3.58;;;;;;;;;;770345;180;819082;-65
2024/04/09 00:21:54;;;;;;;7.00;3.33;;;;;;;;;;778861;180;711025;-64
2024/04/09 00:24:21;;;;;;;5.27;2.90;;;;;;;;;;769348;180;815706;-64
2024/04/09 00:26:46;;;;;;;6.97;3.00;;;;;;;;;;768603;181;819123;-65
2024/04/09 00:29:11;;;;;;;6.77;3.00;;;;;;;;;;777724;180;811617;-66
2024/04/09 00:31:37;;;;;;;5.40;3.67;;;;;;;;;;774415;181;819479;-65
2024/04/09 00:34:04;;;;;;;6.70;2.93;;;;;;;;;;771055;180;794223;-64
2024/04/09 00:36:29;;;;;;;3.87;2.50;;;;;;;;;;772668;180;814681;-65
2024/04/09 00:38:56;;;;;;;4.45;3.35;;;;;;;;;;776529;180;1733040;-64
2024/04/09 00:41:20;;;;;;;4.20;2.90;;;;;;;;;;776092;180;925011;-64
2024/04/09 00:43:47;;;;;;;4.27;2.90;;;;;;;;;;772232;180;918587;-66
2024/04/09 00:46:13;;;;;;;8.33;3.23;;;;;;;;;;778420;180;918356;-65
2024/04/09 00:48:38;;;;;;;3.80;2.40;;;;;;;;;;772115;180;945691;-65
2024/04/09 00:51:04;;;;;;;10.60;2.60;;;;;;;;;;769648;180;919877;-65
2024/04/09 00:53:30;;;;;;;6.83;2.53;;;;;;;;;;777080;180;817537;-64
2024/04/09 00:55:56;;;;;;;4.10;2.33;;;;;;;;;;774339;180;881131;-64
2024/04/09 00:58:22;;;;;;;15.80;2.80;;;;;;;;;;765263;180;918744;-64
2024/04/09 01:00:48;;;;;;;4.47;2.50;;;;;;;;;;778261;180;700752;-65
2024/04/09 01:03:13;;;;;;;4.33;2.27;;;;;;;;;;773842;180;873680;-64
2024/04/09 01:05:39;;;;;;;4.33;2.50;;;;;;;;;;768937;180;918472;-64
2024/04/09 01:08:05;;;;;;;5.65;2.83;;;;;;;;;;774750;180;920704;-66
2024/04/09 01:10:31;;;;;;;3.90;2.63;;;;;;;;;;763487;183;819582;-64
2024/04/09 01:12:57;;;;;;;8.43;2.72;;;;;;;;;;768429;180;902475;-64
2024/04/09 01:15:23;;;;;;;8.10;3.33;;;;;;;;;;772893;180;920690;-65
2024/04/09 01:17:48;;;;;;;5.67;2.60;;;;;;;;;;778938;180;796202;-65
2024/04/09 01:20:16;;;;;;;6.40;2.53;;;;;;;;;;771833;181;919784;-65
2024/04/09 01:22:40;;;;;;;3.95;2.53;;;;;;;;;;770470;180;917126;-65
2024/04/09 01:25:08;;;;;;;9.03;2.33;;;;;;;;;;774827;180;922282;-66
2024/04/09 01:27:33;;;;;;;3.60;2.63;;;;;;;;;;773514;180;912964;-67
2024/04/09 01:29:59;;;;;;;7.33;3.00;;;;;;;;;;772871;180;815595;-67
2024/04/09 01:32:25;;;;;;;3.10;2.20;;;;;;;;;;780241;180;723898;-66
2024/04/09 01:34:51;;;;;;;5.40;2.53;;;;;;;;;;771988;180;743208;-66
2024/04/09 01:37:17;;;;;;;14.77;3.10;;;;;;;;;;772453;180;804210;-66
2024/04/09 01:39:41;;;;;;;4.93;2.50;;;;;;;;;;771332;181;819726;-68
2024/04/09 01:42:09;;;;;;;5.13;2.53;;;;;;;;;;769843;181;799630;-66
2024/04/09 01:44:33;;;;;;;3.40;2.37;;;;;;;;;;771106;180;937962;-66
2024/04/09 01:46:59;;;;;;;6.37;2.90;;;;;;;;;;771621;180;838476;-67
2024/04/09 01:49:25;;;;;;;6.47;2.40;;;;;;;;;;780526;179;715132;-66
2024/04/09 01:51:50;;;;;;;6.27;3.20;;;;;;;;;;772486;180;920688;-66
2024/04/09 01:54:16;;;;;;;9.73;3.10;;;;;;;;;;773937;180;821935;-68
2024/04/09 01:56:42;;;;;;;3.33;2.20;;;;;;;;;;775106;180;773510;-67
2024/04/09 01:59:08;;;;;;;5.72;3.12;;;;;;;;;;771824;180;937731;-66
2024/04/09 02:01:35;;;;;;;3.97;2.50;;;;;;;;;;775085;180;925138;-66
2024/04/09 02:04:01;;;;;;;4.20;2.93;;;;;;;;;;782793;180;631145;-67
2024/04/09 02:06:25;;;;;;;8.93;3.33;;;;;;;;;;755883;181;917155;-66
2024/04/09 02:08:51;;;;;;;4.13;2.80;;;;;;;;;;775171;180;834392;-66
2024/04/09 02:11:17;;;;;;;6.00;3.20;;;;;;;;;;772859;180;922824;-68
2024/04/09 02:13:43;;;;;;;5.33;3.27;;;;;;;;;;762229;181;909565;-69
2024/04/09 02:16:09;;;;;;;3.27;2.37;;;;;;;;;;766870;181;920394;-66
2024/04/09 02:18:36;;;;;;;8.80;3.00;;;;;;;;;;772483;180;815513;-68
2024/04/09 02:21:01;;;;;;;4.30;3.00;;;;;;;;;;774701;180;811924;-68
2024/04/09 02:23:27;;;;;;;3.60;2.70;;;;;;;;;;773998;180;918287;-67
2024/04/09 02:25:53;;;;;;;3.85;2.60;;;;;;;;;;774506;180;921233;-66
2024/04/09 02:28:19;;;;;;;3.67;2.60;;;;;;;;;;777549;180;819108;-68
2024/04/09 02:30:45;;;;;;;5.27;2.77;;;;;;;;;;767493;180;917944;-68
2024/04/09 02:33:13;;;;;;;4.95;3.28;;;;;;;;;;773456;180;920714;-67
2024/04/09 02:35:37;;;;;;;9.77;2.73;;;;;;;;;;776705;180;910353;-68
2024/04/09 02:38:02;;;;;;;5.23;2.73;;;;;;;;;;773849;180;769737;-67
2024/04/09 02:40:28;;;;;;;4.97;2.87;;;;;;;;;;772800;180;917347;-66
2024/04/09 02:42:56;;;;;;;3.70;2.47;;;;;;;;;;773270;180;924276;-67
2024/04/09 02:45:20;;;;;;;8.37;2.73;;;;;;;;;;777112;180;914827;-68
2024/04/09 02:47:45;;;;;;;8.40;3.17;;;;;;;;;;769176;180;926503;-68
2024/04/09 02:50:12;;;;;;;6.10;2.40;;;;;;;;;;770989;180;917362;-68
2024/04/09 02:52:38;;;;;;;8.03;2.70;;;;;;;;;;775412;180;804020;-67
2024/04/09 02:55:03;;;;;;;3.50;1.93;;;;;;;;;;772521;181;921325;-68
2024/04/09 02:57:30;;;;;;;3.40;2.30;;;;;;;;;;769008;180;916792;-68
2024/04/09 02:59:55;;;;;;;5.00;2.13;;;;;;;;;;779390;179;814594;-67
2024/04/09 03:02:21;;;;;;;4.12;2.08;;;;;;;;;;774941;180;825886;-68
2024/04/09 03:04:47;;;;;;;3.53;1.60;;;;;;;;;;771980;180;923204;-68
2024/04/09 03:07:12;;;;;;;6.37;2.00;;;;;;;;;;780608;180;815078;-67
2024/04/09 03:09:38;;;;;;;5.70;1.90;;;;;;;;;;773800;180;723810;-67
2024/04/09 03:12:04;;;;;;;4.60;1.90;;;;;;;;;;777980;180;932267;-66
2024/04/09 03:14:30;;;;;;;3.23;1.73;;;;;;;;;;771531;179;777406;-69
2024/04/09 03:16:56;;;;;;;4.90;2.40;;;;;;;;;;777739;180;761938;-67
2024/04/09 03:19:22;;;;;;;2.53;1.43;;;;;;;;;;773567;180;909209;-67
2024/04/09 03:21:47;;;;;;;4.20;2.10;;;;;;;;;;768559;180;895820;-67
2024/04/09 03:24:13;;;;;;;5.83;1.80;;;;;;;;;;778682;180;627908;-67
2024/04/09 03:26:39;;;;;;;5.23;1.50;;;;;;;;;;770900;180;898519;-68
2024/04/09 03:29:05;;;;;;;3.70;1.93;;;;;;;;;;775589;180;815463;-68
2024/04/09 03:31:31;;;;;;;2.90;1.97;;;;;;;;;;774315;180;879566;-68
2024/04/09 03:33:57;;;;;;;4.68;1.83;;;;;;;;;;773868;180;920247;-68
2024/04/09 03:36:23;;;;;;;6.03;2.43;;;;;;;;;;774474;180;809168;-67
2024/04/09 03:38:48;;;;;;;4.15;1.70;;;;;;;;;;777020;180;712160;-68
2024/04/09 03:41:14;;;;;;;4.87;1.53;;;;;;;;;;768914;180;882901;-67
2024/04/09 03:43:40;;;;;;;4.70;1.70;;;;;;;;;;774357;180;754597;-67
2024/04/09 03:46:07;;;;;;;5.03;1.80;;;;;;;;;;767460;180;916291;-68
2024/04/09 03:48:33;;;;;;;2.70;1.40;;;;;;;;;;764439;183;916181;-69
2024/04/09 03:50:59;;;;;;;3.13;2.00;;;;;;;;;;768057;180;910898;-68
2024/04/09 03:53:25;;;;;;;8.80;1.63;;;;;;;;;;770266;180;918924;-67
2024/04/09 03:55:54;;;;;;;2.73;1.53;;;;;;;;;;774602;180;917741;-67
2024/04/09 03:58:20;;;;;;;4.40;1.60;;;;;;;;;;774021;180;920571;-67
2024/04/09 04:00:52;;;;;;;11.90;1.80;;;;;;;;;;774232;180;922126;-66
2024/04/09 04:03:18;;;;;;;3.50;2.03;;;;;;;;;;767883;180;918115;-67
2024/04/09 04:05:44;;;;;;;5.57;1.97;;;;;;;;;;775647;180;917562;-66
2024/04/09 04:08:09;;;;;;;7.07;1.93;;;;;;;;;;769304;180;817220;-66
2024/04/09 04:10:36;;;;;;;4.10;1.97;;;;;;;;;;768409;181;813609;-68
2024/04/09 04:13:01;;;;;;;3.47;1.73;;;;;;;;;;780459;178;817015;-68
2024/04/09 04:15:27;;;;;;;4.50;1.90;;;;;;;;;;773934;180;895435;-67
2024/04/09 04:17:53;;;;;;;4.23;1.77;;;;;;;;;;770509;180;916411;-67
2024/04/09 04:20:19;;;;;;;3.73;1.70;;;;;;;;;;781577;180;634705;-68
2024/04/09 04:22:44;;;;;;;7.27;2.00;;;;;;;;;;777590;180;616721;-66
2024/04/09 04:25:11;;;;;;;4.17;1.80;;;;;;;;;;772507;180;650677;-67
2024/04/09 04:27:36;;;;;;;6.03;1.97;;;;;;;;;;772622;180;633752;-67
2024/04/09 04:30:02;;;;;;;3.30;1.97;;;;;;;;;;771485;180;638756;-68
2024/04/09 04:32:28;;;;;;;3.10;1.87;;;;;;;;;;775469;180;650636;-68
2024/04/09 04:34:54;;;;;;;4.67;2.17;;;;;;;;;;776412;180;640902;-68
2024/04/09 04:37:20;;;;;;;5.65;2.33;;;;;;;;;;780446;180;633540;-68
2024/04/09 04:39:46;;;;;;;4.70;2.40;;;;;;;;;;777675;180;632396;-67
2024/04/09 04:42:12;;;;;;;6.53;2.87;;;;;;;;;;772525;180;634601;-68
2024/04/09 04:44:37;;;;;;;4.90;2.07;;;;;;;;;;773916;180;852797;-68
2024/04/09 04:47:03;;;;;;;5.53;1.90;;;;;;;;;;771365;180;912095;-68
2024/04/09 04:49:29;;;;;;;4.25;2.35;;;;;;;;;;771361;180;627837;-68
2024/04/09 04:51:55;;;;;;;4.30;1.93;;;;;;;;;;777261;180;630663;-68
2024/04/09 04:54:21;;;;;;;3.50;1.90;;;;;;;;;;772950;180;839714;-68
2024/04/09 04:56:47;;;;;;;3.28;1.90;;;;;;;;;;771363;180;907931;-67
2024/04/09 04:59:13;;;;;;;2.90;1.93;;;;;;;;;;769661;180;860867;-68
2024/04/09 05:01:40;;;;;;;6.57;3.57;;;;;;;;;;763982;183;713967;-69
2024/04/09 05:04:06;;;;;;;3.28;1.95;;;;;;;;;;769125;180;919723;-68
2024/04/09 05:06:30;;;;;;;4.13;2.10;;;;;;;;;;768583;180;918368;-67
2024/04/09 05:08:56;;;;;;;6.07;2.07;;;;;;;;;;773936;181;811365;-67
2024/04/09 05:11:22;;;;;;;2.90;1.60;;;;;;;;;;767058;180;900199;-67
2024/04/09 05:13:48;;;;;;;3.43;2.13;;;;;;;;;;772612;180;626031;-68
2024/04/09 05:16:14;;;;;;;7.40;3.10;;;;;;;;;;774152;180;614097;-68
2024/04/09 05:18:40;;;;;;;4.43;2.07;;;;;;;;;;774108;180;643654;-68
2024/04/09 05:21:05;;;;;;;3.50;2.30;;;;;;;;;;772420;181;621105;-69
2024/04/09 05:23:31;;;;;;;2.93;2.00;;;;;;;;;;778176;179;910018;-68
2024/04/09 05:25:57;;;;;;;3.50;2.30;;;;;;;;;;773093;180;918041;-68
2024/04/09 05:28:23;;;;;;;5.90;2.80;;;;;;;;;;770629;180;919233;-68
2024/04/09 05:30:49;;;;;;;4.65;2.28;;;;;;;;;;775821;180;914969;-69
2024/04/09 05:33:15;;;;;;;4.37;1.90;;;;;;;;;;762530;182;795327;-68
2024/04/09 05:35:41;;;;;;;3.67;2.17;;;;;;;;;;772266;180;917185;-69
2024/04/09 05:38:07;;;;;;;4.05;2.12;;;;;;;;;;772876;180;836083;-68
2024/04/09 05:40:34;;;;;;;4.93;2.23;;;;;;;;;;779238;180;795431;-69
2024/04/09 05:42:59;;;;;;;3.40;2.03;;;;;;;;;;777924;180;816236;-67
2024/04/09 05:45:24;;;;;;;3.90;2.17;;;;;;;;;;775290;180;811666;-69
2024/04/09 05:47:50;;;;;;;11.20;2.40;;;;;;;;;;774256;180;847709;-69
2024/04/09 05:50:16;;;;;;;4.40;2.17;;;;;;;;;;774490;180;742540;-69
2024/04/09 05:52:42;;;;;;;3.30;2.23;;;;;;;;;;774100;180;730835;-69
2024/04/09 05:55:08;;;;;;;3.07;2.03;;;;;;;;;;773236;180;620284;-67
2024/04/09 05:57:37;;;;;;;6.97;2.43;;;;;;;;;;771485;180;818015;-68
2024/04/09 06:00:05;;;;;;;12.53;2.70;;;;;;;;;;771397;180;915959;-68
2024/04/09 06:02:29;;;;;;;9.10;3.47;;;;;;;;;;770503;180;752781;-69
2024/04/09 06:04:54;;;;;;;4.50;2.20;;;;;;;;;;777648;181;798351;-69
2024/04/09 06:07:25;;;;;;;8.70;2.83;;;;;;;;;;767892;180;1051050;-68
2024/04/09 06:09:46;;;;;;;4.18;2.15;;;;;;;;;;770789;180;926165;-70
2024/04/09 06:12:12;;;;;;;3.70;1.97;;;;;;;;;;773635;180;820868;-69
2024/04/09 06:14:38;;;;;;;4.37;1.90;;;;;;;;;;773221;180;841439;-69
2024/04/09 06:17:04;;;;;;;7.10;2.33;;;;;;;;;;771856;180;898802;-70
2024/04/09 06:19:30;;;;;;;19.27;2.40;;;;;;;;;;775524;180;919183;-67
2024/04/09 06:21:56;;;;;;;5.60;2.27;;;;;;;;;;773522;180;791408;-69
2024/04/09 06:24:21;;;;;;;18.00;2.90;;;;;;;;;;771343;180;848029;-69
2024/04/09 06:26:48;;;;;;;8.55;2.40;;;;;;;;;;775638;180;847225;-69
2024/04/09 06:29:16;;;;;;;7.37;2.10;;;;;;;;;;768445;181;811216;-68
2024/04/09 06:31:40;;;;;;;4.60;1.90;;;;;;;;;;768547;180;1019609;-69
2024/04/09 06:34:06;;;;;;;5.63;2.17;;;;;;;;;;770471;179;914957;-69
2024/04/09 06:36:31;;;;;;;5.63;2.03;;;;;;;;;;777867;179;931492;-69
2024/04/09 06:38:58;;;;;;;3.00;1.63;;;;;;;;;;771061;180;955523;-69
2024/04/09 06:41:23;;;;;;;4.50;2.30;;;;;;;;;;771054;180;945016;-67
2024/04/09 06:43:49;;;;;;;6.00;2.20;;;;;;;;;;778133;180;714375;-68
2024/04/09 06:46:15;;;;;;;4.13;1.90;;;;;;;;;;771254;180;805578;-68
2024/04/09 06:48:41;;;;;;;6.07;2.40;;;;;;;;;;766632;180;921676;-69
2024/04/09 06:51:06;;;;;;;3.80;2.17;;;;;;;;;;775569;180;913956;-69
2024/04/09 06:53:33;;;;;;;5.60;2.40;;;;;;;;;;770821;180;916213;-67
2024/04/09 06:55:58;;;;;;;5.10;2.07;;;;;;;;;;773746;180;814231;-67
2024/04/09 06:58:25;;;;;;;3.80;2.00;;;;;;;;;;773119;180;680298;-69
2024/04/09 07:00:50;;;;;;;8.43;2.97;;;;;;;;;;770973;181;638857;-69
2024/04/09 07:03:16;;;;;;;4.73;3.20;;;;;;;;;;772193;180;864160;-69
2024/04/09 07:05:42;;;;;;;3.40;1.73;;;;;;;;;;769823;180;919887;-69
2024/04/09 07:08:08;;;;;;;3.23;1.77;;;;;;;;;;778532;180;690839;-67
2024/04/09 07:10:34;;;;;;;4.57;2.23;;;;;;;;;;769786;180;923259;-68
2024/04/09 07:13:00;;;;;;;3.03;1.70;;;;;;;;;;772716;180;802396;-68
2024/04/09 07:15:26;;;;;;;7.03;2.40;;;;;;;;;;777555;180;669635;-69
2024/04/09 07:17:54;;;;;;;4.80;1.90;;;;;;;;;;771464;180;721549;-68
2024/04/09 07:20:19;;;;;;;4.33;2.13;;;;;;;;;;771071;180;721116;-67
2024/04/09 07:22:45;;;;;;;11.60;3.00;;;;;;;;;;777135;180;921035;-69
2024/04/09 07:25:12;;;;;;;6.10;2.30;;;;;;;;;;772661;180;862156;-68
2024/04/09 07:27:37;;;;;;;5.80;2.10;;;;;;;;;;772542;180;715839;-69
2024/04/09 07:30:02;;;;;;;13.50;3.13;;;;;;;;;;774102;181;830769;-69
2024/04/09 07:32:28;;;;;;;8.63;2.10;;;;;;;;;;766344;181;712641;-69
2024/04/09 07:34:54;;;;;;;3.97;2.20;;;;;;;;;;772139;180;815280;-68
2024/04/09 07:37:21;;;;;;;7.47;2.77;;;;;;;;;;772064;180;808611;-69
2024/04/09 07:39:46;;;;;;;3.63;1.83;;;;;;;;;;777642;181;612931;-69
2024/04/09 07:42:12;;;;;;;7.90;2.17;;;;;;;;;;775146;180;804882;-70
2024/04/09 07:44:38;;;;;;;3.30;2.10;;;;;;;;;;772374;180;912845;-69
2024/04/09 07:47:04;;;;;;;3.70;2.00;;;;;;;;;;776464;179;791073;-69
2024/04/09 07:49:30;;;;;;;3.53;1.70;;;;;;;;;;774251;180;801074;-68
2024/04/09 07:51:56;;;;;;;3.03;1.77;;;;;;;;;;771960;179;923234;-70
2024/04/09 07:54:22;;;;;;;17.57;2.50;;;;;;;;;;779037;180;915040;-68
2024/04/09 07:56:48;;;;;;;7.23;2.40;;;;;;;;;;772447;180;919402;-69
2024/04/09 07:59:13;;;;;;;4.13;1.90;;;;;;;;;;769697;180;918593;-68
2024/04/09 08:01:39;;;;;;;3.13;1.83;;;;;;;;;;771379;180;821516;-70
2024/04/09 08:04:05;;;;;;;5.60;2.07;;;;;;;;;;775277;180;898785;-69
2024/04/09 08:06:33;;;;;;;3.70;1.73;;;;;;;;;;771100;180;918356;-69
2024/04/09 08:08:57;;;;;;;7.75;2.00;;;;;;;;;;773808;180;627296;-69
2024/04/09 08:11:22;;;;;;;32.83;4.30;;;;;;;;;;774678;180;920286;-68
2024/04/09 08:13:48;;;;;;;4.33;2.10;;;;;;;;;;769219;180;909978;-68
2024/04/09 08:16:15;;;;;;;6.63;2.33;;;;;;;;;;770454;180;864676;-69
2024/04/09 08:18:40;;;;;;;3.30;1.77;;;;;;;;;;776966;180;918022;-69
2024/04/09 08:21:06;;;;;;;6.60;2.27;;;;;;;;;;773508;180;914847;-68
2024/04/09 08:23:32;;;;;;;9.03;2.60;;;;;;;;;;773226;180;716364;-69
2024/04/09 08:25:58;;;;;;;3.23;1.80;;;;;;;;;;774211;180;799584;-69
2024/04/09 08:28:23;;;;;;;6.17;2.30;;;;;;;;;;772288;179;708131;-69
2024/04/09 08:30:50;;;;;;;3.97;2.20;;;;;;;;;;773647;180;713906;-69
2024/04/09 08:33:15;;;;;;;5.00;1.67;;;;;;;;;;773928;180;932969;-70
2024/04/09 08:35:42;;;;;;;9.90;2.60;;;;;;;;;;769454;181;952695;-69
2024/04/09 08:38:08;;;;;;;4.70;2.00;;;;;;;;;;770932;180;816105;-67
2024/04/09 08:40:34;;;;;;;6.60;2.10;;;;;;;;;;770572;180;1298270;-69
2024/04/09 08:42:59;;;;;;;5.17;2.63;;;;;;;;;;778906;180;773832;-68
2024/04/09 08:45:25;;;;;;;4.07;1.90;;;;;;;;;;773253;180;804584;-68
2024/04/09 08:47:51;;;;;;;5.37;2.17;;;;;;;;;;773839;178;807657;-69
2024/04/09 08:50:17;;;;;;;3.70;2.10;;;;;;;;;;775928;180;786257;-69
2024/04/09 08:52:43;;;;;;;12.73;2.17;;;;;;;;;;770459;180;816409;-69
2024/04/09 08:55:09;;;;;;;5.60;1.97;;;;;;;;;;774126;180;817491;-69
2024/04/09 08:57:34;;;;;;;12.00;2.40;;;;;;;;;;777167;179;912243;-69
2024/04/09 09:00:02;;;;;;;4.67;2.00;;;;;;;;;;776685;180;633359;-69
2024/04/09 09:02:26;;;;;;;5.53;1.90;;;;;;;;;;771962;181;921880;-69
2024/04/09 09:04:52;;;;;;;4.57;1.90;;;;;;;;;;774409;180;849935;-70
2024/04/09 09:07:18;;;;;;;5.07;2.13;;;;;;;;;;771237;180;913953;-69
2024/04/09 09:09:44;;;;;;;4.00;2.10;;;;;;;;;;769643;180;786553;-69
2024/04/09 09:12:09;;;;;;;5.13;2.07;;;;;;;;;;772779;180;882486;-69
2024/04/09 09:14:35;;;;;;;3.57;1.83;;;;;;;;;;781183;180;637601;-70
2024/04/09 09:17:04;;;;;;;3.80;1.87;;;;;;;;;;772955;180;824158;-68
2024/04/09 09:19:31;;;;;;;6.40;1.80;;;;;;;;;;770268;180;916086;-68
2024/04/09 09:21:57;;;;;;;3.50;1.97;;;;;;;;;;774576;180;920153;-68
2024/04/09 09:24:22;;;;;;;4.13;1.63;;;;;;;;;;775625;180;710752;-69
2024/04/09 09:26:48;;;;;;;4.07;2.40;;;;;;;;;;772494;180;813607;-68
2024/04/09 09:29:15;;;;;;;4.40;2.00;;;;;;;;;;771588;180;940986;-69
2024/04/09 09:31:40;;;;;;;7.83;2.30;;;;;;;;;;770399;180;915341;-69
2024/04/09 09:34:07;;;;;;;3.80;1.87;;;;;;;;;;773506;180;635507;-66
2024/04/09 09:36:32;;;;;;;3.85;2.20;;;;;;;;;;771928;180;922013;-66
2024/04/09 09:38:57;;;;;;;9.00;2.60;;;;;;;;;;779192;180;691780;-66
2024/04/09 09:41:23;;;;;;;4.97;1.70;;;;;;;;;;768296;180;849206;-65
2024/04/09 09:43:49;;;;;;;4.77;2.50;;;;;;;;;;771395;180;915305;-67
2024/04/09 09:46:15;;;;;;;10.00;2.17;;;;;;;;;;775471;180;917995;-66
2024/04/09 09:48:41;;;;;;;3.47;1.90;;;;;;;;;;774212;180;804306;-66
2024/04/09 09:51:07;;;;;;;3.97;2.30;;;;;;;;;;772630;180;740656;-67
2024/04/09 09:53:33;;;;;;;4.50;1.77;;;;;;;;;;774976;180;731284;-68
2024/04/09 09:55:58;;;;;;;4.80;1.93;;;;;;;;;;770000;180;713616;-65
2024/04/09 09:58:24;;;;;;;4.67;1.93;;;;;;;;;;775450;180;739217;-66
2024/04/09 10:00:50;;;;;;;5.77;2.37;;;;;;;;;;769321;180;815989;-67
2024/04/09 10:03:16;;;;;;;5.90;2.13;;;;;;;;;;771290;180;814687;-65
2024/04/09 10:05:42;;;;;;;5.83;1.93;;;;;;;;;;767913;181;880380;-64
2024/04/09 10:08:16;;;;;;;7.13;2.30;;;;;;;;;;771886;180;838332;-69
2024/04/09 10:10:42;;;;;;;5.93;2.50;;;;;;;;;;780552;178;705101;-66
2024/04/09 10:13:08;;;;;;;4.90;1.90;;;;;;;;;;774619;180;1181971;-65
2024/04/09 10:15:34;;;;;;;9.13;2.23;;;;;;;;;;772929;180;812953;-67
2024/04/09 10:18:04;;;;;;;5.57;1.70;;;;;;;;;;774078;180;857279;-67
2024/04/09 10:20:30;;;;;;;4.00;2.20;;;;;;;;;;770496;180;819997;-65
2024/04/09 10:22:57;;;;;;;4.47;1.90;;;;;;;;;;776098;180;891572;-66
2024/04/09 10:25:22;;;;;;;3.87;2.20;;;;;;;;;;769286;180;823667;-64
2024/04/09 10:27:48;;;;;;;5.17;2.10;;;;;;;;;;776150;180;938253;-65
2024/04/09 10:30:14;;;;;;;3.57;1.90;;;;;;;;;;774466;180;632729;-64
2024/04/09 10:32:40;;;;;;;4.23;2.20;;;;;;;;;;773050;180;629904;-64
2024/04/09 10:35:10;;;;;;;5.53;1.97;;;;;;;;;;776023;180;766722;-64
2024/04/09 10:37:36;;;;;;;2.90;1.60;;;;;;;;;;776657;180;656383;-65
2024/04/09 10:40:02;;;;;;;5.37;2.23;;;;;;;;;;772089;180;843839;-64
2024/04/09 10:42:28;;;;;;;6.93;1.83;;;;;;;;;;771912;180;903725;-66
2024/04/09 10:44:54;;;;;;;2.80;1.57;;;;;;;;;;776508;180;891854;-66
2024/04/09 10:47:20;;;;;;;3.93;1.80;;;;;;;;;;766892;181;924696;-67
2024/04/09 10:49:45;;;;;;;6.37;1.63;;;;;;;;;;769814;180;919831;-67
2024/04/09 10:52:11;;;;;;;3.37;1.87;;;;;;;;;;775599;180;924305;-68
2024/04/09 10:54:37;;;;;;;7.00;1.97;;;;;;;;;;769061;181;901643;-67
2024/04/09 10:57:04;;;;;;;5.83;2.10;;;;;;;;;;773501;180;913870;-67
2024/04/09 10:59:29;;;;;;;5.90;1.80;;;;;;;;;;774199;180;899680;-65
2024/04/09 11:01:55;;;;;;;5.17;1.50;;;;;;;;;;773424;180;749509;-64
2024/04/09 11:04:21;;;;;;;4.90;2.17;;;;;;;;;;771986;180;818143;-63
2024/04/09 11:06:47;;;;;;;4.20;2.10;;;;;;;;;;774126;180;892060;-66
2024/04/09 11:09:13;;;;;;;3.47;1.73;;;;;;;;;;769774;181;713124;-64
2024/04/09 11:11:40;;;;;;;5.30;2.30;;;;;;;;;;767132;180;848576;-65
2024/04/09 11:14:04;;;;;;;3.60;2.00;;;;;;;;;;773079;180;721336;-66
2024/04/09 11:16:30;;;;;;;4.27;2.10;;;;;;;;;;779085;180;692165;-64
2024/04/09 11:18:56;;;;;;;6.10;1.92;;;;;;;;;;775217;180;709278;-65
2024/04/09 11:21:22;;;;;;;6.03;2.08;;;;;;;;;;772811;178;940675;-65
2024/04/09 11:23:48;;;;;;;5.47;1.67;;;;;;;;;;775687;180;797244;-64
2024/04/09 11:26:14;;;;;;;6.53;2.17;;;;;;;;;;775655;180;868527;-65
2024/04/09 11:28:39;;;;;;;3.10;1.70;;;;;;;;;;774739;180;709219;-64
2024/04/09 11:31:05;;;;;;;6.13;2.10;;;;;;;;;;779908;180;805428;-64
2024/04/09 11:33:31;;;;;;;9.30;2.40;;;;;;;;;;773356;180;816797;-63
2024/04/09 11:35:58;;;;;;;5.27;2.47;;;;;;;;;;773727;180;819214;-63
2024/04/09 11:38:23;;;;;;;5.07;2.07;;;;;;;;;;779260;180;819795;-64
2024/04/09 11:40:49;;;;;;;3.43;1.77;;;;;;;;;;774474;180;908433;-67
2024/04/09 11:43:14;;;;;;;6.27;2.30;;;;;;;;;;777515;180;617428;-65
2024/04/09 11:45:40;;;;;;;5.80;1.73;;;;;;;;;;770669;180;815093;-65
2024/04/09 11:48:07;;;;;;;4.10;1.70;;;;;;;;;;757193;182;912610;-65
2024/04/09 11:50:32;;;;;;;4.40;1.97;;;;;;;;;;770822;180;751641;-66
2024/04/09 11:52:58;;;;;;;7.43;2.30;;;;;;;;;;770852;180;917610;-66
2024/04/09 11:55:24;;;;;;;4.40;1.90;;;;;;;;;;778543;180;862001;-65
2024/04/09 11:57:50;;;;;;;3.13;1.47;;;;;;;;;;771370;180;820996;-65
2024/04/09 12:00:16;;;;;;;6.35;2.15;;;;;;;;;;766677;180;914847;-64
2024/04/09 12:02:43;;;;;;;5.30;2.27;;;;;;;;;;775998;180;1022500;-67
2024/04/09 12:05:09;;;;;;;3.47;2.00;;;;;;;;;;775694;180;907482;-68
2024/04/09 12:07:35;;;;;;;4.87;2.22;;;;;;;;;;770786;180;917467;-66
2024/04/09 12:10:00;;;;;;;9.00;3.93;;;;;;;;;;777754;180;811817;-67
2024/04/09 12:12:26;;;;;;;4.60;2.00;;;;;;;;;;769325;180;825185;-69
2024/04/09 12:14:52;;;;;;;2.83;1.70;;;;;;;;;;771679;180;917825;-68
2024/04/09 12:17:18;;;;;;;6.97;2.47;;;;;;;;;;771956;180;902307;-68
2024/04/09 12:19:44;;;;;;;7.30;1.90;;;;;;;;;;754866;182;916440;-68
2024/04/09 12:22:14;;;;;;;5.17;2.03;;;;;;;;;;768121;180;919207;-66
2024/04/09 12:24:35;;;;;;;13.27;2.70;;;;;;;;;;768901;180;907243;-67
2024/04/09 12:27:01;;;;;;;6.67;2.20;;;;;;;;;;770521;180;815258;-67
2024/04/09 12:29:28;;;;;;;4.10;1.93;;;;;;;;;;769817;180;843071;-68
2024/04/09 12:31:53;;;;;;;4.77;2.30;;;;;;;;;;775001;180;919327;-67
2024/04/09 12:34:19;;;;;;;3.00;1.53;;;;;;;;;;775716;178;820066;-66
2024/04/09 12:36:45;;;;;;;3.60;2.37;;;;;;;;;;772796;180;890432;-67
2024/04/09 12:39:10;;;;;;;4.50;2.10;;;;;;;;;;773296;180;914948;-68
2024/04/09 12:41:36;;;;;;;7.67;2.17;;;;;;;;;;779267;180;710734;-66
2024/04/09 12:44:02;;;;;;;4.63;2.07;;;;;;;;;;773381;180;919941;-68
2024/04/09 12:46:28;;;;;;;7.20;1.90;;;;;;;;;;772051;180;915669;-67
2024/04/09 12:48:54;;;;;;;8.53;2.43;;;;;;;;;;772598;180;875917;-68
2024/04/09 12:51:20;;;;;;;7.40;2.13;;;;;;;;;;773660;180;815860;-67
2024/04/09 12:53:46;;;;;;;8.03;2.70;;;;;;;;;;769636;180;790095;-67
2024/04/09 12:56:12;;;;;;;3.60;1.90;;;;;;;;;;769680;181;874461;-66
2024/04/09 12:58:38;;;;;;;4.33;2.10;;;;;;;;;;776331;180;852275;-66
2024/04/09 13:01:03;;;;;;;7.37;2.23;;;;;;;;;;770504;180;828957;-66
2024/04/09 13:03:29;;;;;;;3.47;2.10;;;;;;;;;;770703;180;919195;-66
2024/04/09 13:05:55;;;;;;;6.70;2.20;;;;;;;;;;775956;180;824618;-67
2024/04/09 13:08:21;;;;;;;5.40;2.07;;;;;;;;;;775545;180;914722;-66
2024/04/09 13:10:46;;;;;;;3.80;1.70;;;;;;;;;;774362;180;690784;-68
2024/04/09 13:13:13;;;;;;;5.23;2.47;;;;;;;;;;776212;180;754983;-67
2024/04/09 13:15:38;;;;;;;8.23;2.33;;;;;;;;;;768147;181;884775;-67
2024/04/09 13:18:04;;;;;;;5.47;2.10;;;;;;;;;;772335;180;720187;-68
2024/04/09 13:20:30;;;;;;;3.57;2.00;;;;;;;;;;774380;180;818250;-68
2024/04/09 13:22:56;;;;;;;4.10;2.30;;;;;;;;;;755050;182;941128;-68
2024/04/09 13:25:22;;;;;;;8.87;2.10;;;;;;;;;;762795;182;813643;-68
2024/04/09 13:27:48;;;;;;;5.57;2.70;;;;;;;;;;767960;180;814831;-67
2024/04/09 13:30:13;;;;;;;4.60;2.73;;;;;;;;;;778032;180;918188;-67
2024/04/09 13:32:39;;;;;;;3.30;2.00;;;;;;;;;;772514;180;880413;-67
2024/04/09 13:35:05;;;;;;;2.90;1.70;;;;;;;;;;772239;180;815036;-67
2024/04/09 13:37:32;;;;;;;13.13;2.03;;;;;;;;;;776059;180;917166;-68
2024/04/09 13:39:57;;;;;;;4.13;2.47;;;;;;;;;;772788;180;816501;-68
2024/04/09 13:42:23;;;;;;;8.73;2.33;;;;;;;;;;771397;180;818632;-69
2024/04/09 13:44:49;;;;;;;12.40;3.07;;;;;;;;;;779010;180;861230;-69
2024/04/09 13:47:14;;;;;;;7.10;2.60;;;;;;;;;;773912;180;906868;-68
2024/04/09 13:49:40;;;;;;;6.33;2.00;;;;;;;;;;773069;180;913501;-68
2024/04/09 13:52:07;;;;;;;5.17;2.07;;;;;;;;;;773695;180;812901;-68
2024/04/09 13:54:32;;;;;;;5.67;2.63;;;;;;;;;;769863;180;869290;-68
2024/04/09 13:56:58;;;;;;;6.40;2.23;;;;;;;;;;770013;180;881876;-68
2024/04/09 13:59:24;;;;;;;4.50;2.08;;;;;;;;;;768056;180;941944;-68
2024/04/09 14:01:50;;;;;;;5.57;2.17;;;;;;;;;;775396;181;900713;-67
2024/04/09 14:04:16;;;;;;;5.77;2.93;;;;;;;;;;772656;180;915844;-67
2024/04/09 14:06:41;;;;;;;3.17;1.87;;;;;;;;;;765083;180;889982;-68
2024/04/09 14:09:08;;;;;;;3.50;2.10;;;;;;;;;;772077;180;920108;-67
2024/04/09 14:11:33;;;;;;;5.30;2.37;;;;;;;;;;771502;180;860259;-66
2024/04/09 14:13:59;;;;;;;4.00;2.00;;;;;;;;;;772027;180;899489;-68
2024/04/09 14:16:25;;;;;;;11.50;2.30;;;;;;;;;;778526;180;921552;-68
2024/04/09 14:18:51;;;;;;;4.17;1.70;;;;;;;;;;770461;180;911256;-68